Аэропорт: Мурманск. Мурманск

ICAO: ULMM

METAR:
2019-11-21 01:30:00
ULMM 210130Z 23003MPS 9000 -SHRASN BKN015CB 02/M01 Q1024 R13/690155 NOSIG RMK QFE761
METAR:
2019-11-20 22:50:00
TAF ULMM 202250Z 2100/2124 21003G08MPS 9999 BKN011 TEMPO 2100/2121 24005G10MPS 4000 -SHSNRA BKN006 BKN011CB TEMPO 2121/2124 24004G09MPS 3100 -SHSNRA BR SCT005 BKN011CB